Time;durP1;ratioP1;P1;durP2;ratioP2;P2;SDS_P1;SDS_P2;PMS_P1;PMS_P2;Temp;Humidity;BMP_temperature;BMP_pressure;BME280_temperature;BME280_humidity;BME280_pressure;Samples;Min_cycle;Max_cycle;Signal;HPM_P1;HPM_P2
2022/02/08 00:01:00;;;;;;;;;;;22.00;29.90;;;;;;5088379;28;19928;-63
2022/02/08 00:06:49;;;;;;;;;;;22.00;30.00;;;;;;5086605;28;19923;-63
2022/02/08 00:09:17;;;;;;;;;;;22.00;30.00;;;;;;5088290;28;19932;-63
2022/02/08 00:11:44;;;;;;;;;;;22.00;30.00;;;;;;5087039;28;19967;-63
2022/02/08 00:14:11;;;;;;;;;;;22.00;30.00;;;;;;5088500;28;20369;-63
2022/02/08 00:16:38;;;;;;;;;;;22.00;30.00;;;;;;5086983;28;19925;-63
2022/02/08 00:19:06;;;;;;;;;;;22.00;30.00;;;;;;5088273;28;19928;-63
2022/02/08 00:21:33;;;;;;;;;;;22.00;30.00;;;;;;5086838;28;19924;-63
2022/02/08 00:24:00;;;;;;;;;;;22.00;30.00;;;;;;5087499;28;19924;-63
2022/02/08 00:26:27;;;;;;;;;;;22.00;30.00;;;;;;5068823;28;20122;-64
2022/02/08 00:31:58;;;;;;;;;;;22.00;30.00;;;;;;5086340;28;19953;-63
2022/02/08 00:34:25;;;;;;;;;;;22.00;30.00;;;;;;5088224;28;19928;-64
2022/02/08 00:36:52;;;;;;;;;;;22.00;30.00;;;;;;5086210;28;19993;-63
2022/02/08 00:39:20;;;;;;;;;;;22.00;30.00;;;;;;5087874;28;19979;-63
2022/02/08 00:41:47;;;;;;;;;;;22.00;30.00;;;;;;5068617;28;19924;-63
2022/02/08 00:44:20;;;;;;;;;;;21.90;30.00;;;;;;5088520;28;19974;-63
2022/02/08 00:46:56;;;;;;;;;;;22.00;30.00;;;;;;5086366;28;19924;-63
2022/02/08 00:49:30;;;;;;;;;;;22.00;30.00;;;;;;5088122;28;19924;-66
2022/02/08 00:52:05;;;;;;;;;;;21.90;30.00;;;;;;5085510;28;20391;-63
2022/02/08 00:54:32;;;;;;;;;;;21.90;30.00;;;;;;5088067;28;19924;-64
2022/02/08 00:56:59;;;;;;;;;;;22.00;30.10;;;;;;5085513;28;20404;-63
2022/02/08 00:59:26;;;;;;;;;;;22.00;30.10;;;;;;5088279;28;20104;-64
2022/02/08 01:01:53;;;;;;;;;;;22.00;30.00;;;;;;5085408;28;19997;-63
2022/02/08 01:04:23;;;;;;;;;;;22.00;30.00;;;;;;5088231;28;19924;-63
2022/02/08 01:06:51;;;;;;;;;;;22.00;30.00;;;;;;5084974;28;20229;-64
2022/02/08 01:09:23;;;;;;;;;;;22.00;30.00;;;;;;5088196;28;19928;-63
2022/02/08 01:11:53;;;;;;;;;;;22.00;30.00;;;;;;5088423;28;19982;-64
2022/02/08 01:14:23;;;;;;;;;;;22.00;30.00;;;;;;5088158;28;20372;-63
2022/02/08 01:16:51;;;;;;;;;;;22.00;30.00;;;;;;5085827;28;19928;-63
2022/02/08 01:19:21;;;;;;;;;;;22.00;30.00;;;;;;5087876;28;19974;-63
2022/02/08 01:21:48;;;;;;;;;;;21.90;30.00;;;;;;5084731;28;20010;-63
2022/02/08 01:24:15;;;;;;;;;;;21.90;30.00;;;;;;5087818;28;20389;-63
2022/02/08 01:26:50;;;;;;;;;;;21.90;30.00;;;;;;5085784;28;19989;-64
2022/02/08 01:29:36;;;;;;;;;;;21.90;30.00;;;;;;5087620;28;19993;-64
2022/02/08 01:32:35;;;;;;;;;;;21.90;30.00;;;;;;5085583;28;19977;-63
2022/02/08 01:35:11;;;;;;;;;;;21.90;30.00;;;;;;5087946;28;20347;-63
2022/02/08 01:37:55;;;;;;;;;;;21.90;30.00;;;;;;5089629;28;20481;-63
2022/02/08 01:40:33;;;;;;;;;;;21.90;30.00;;;;;;5091597;28;19928;-63
2022/02/08 01:46:34;;;;;;;;;;;21.90;29.90;;;;;;5089222;28;20421;-63
2022/02/08 01:49:15;;;;;;;;;;;21.80;29.90;;;;;;5091237;28;19924;-63
2022/02/08 01:51:42;;;;;;;;;;;21.80;29.90;;;;;;5088534;28;19924;-63
2022/02/08 01:54:09;;;;;;;;;;;21.80;29.90;;;;;;5090978;28;20365;-63
2022/02/08 01:56:36;;;;;;;;;;;21.80;29.80;;;;;;5089503;28;19924;-64
2022/02/08 01:59:04;;;;;;;;;;;21.80;29.90;;;;;;5090934;28;19970;-63
2022/02/08 02:01:31;;;;;;;;;;;21.80;29.90;;;;;;5089432;28;19997;-63
2022/02/08 02:03:58;;;;;;;;;;;21.80;29.80;;;;;;5090597;28;19928;-63
2022/02/08 02:06:37;;;;;;;;;;;21.80;29.90;;;;;;5089403;28;19947;-64
2022/02/08 02:09:05;;;;;;;;;;;21.80;29.90;;;;;;5090242;28;19977;-64
2022/02/08 02:11:32;;;;;;;;;;;21.80;29.90;;;;;;5088927;28;20396;-63
2022/02/08 02:14:00;;;;;;;;;;;21.80;29.90;;;;;;5090236;28;19950;-63
2022/02/08 02:16:45;;;;;;;;;;;21.80;29.90;;;;;;5089085;28;20007;-63
2022/02/08 02:19:14;;;;;;;;;;;21.80;29.90;;;;;;5090618;28;19977;-63
2022/02/08 02:21:41;;;;;;;;;;;21.80;29.90;;;;;;5088930;28;19924;-63
2022/02/08 02:24:08;;;;;;;;;;;21.80;29.90;;;;;;5090353;28;20343;-63
2022/02/08 02:26:35;;;;;;;;;;;21.80;29.90;;;;;;5088939;28;20002;-63
2022/02/08 02:31:58;;;;;;;;;;;21.80;30.00;;;;;;5088056;28;19967;-63
2022/02/08 02:34:25;;;;;;;;;;;21.80;30.00;;;;;;5090939;28;19937;-63
2022/02/08 02:36:54;;;;;;;;;;;21.80;29.90;;;;;;5070408;28;19924;-64
2022/02/08 02:39:26;;;;;;;;;;;21.80;30.00;;;;;;5090464;28;19930;-63
2022/02/08 02:41:54;;;;;;;;;;;21.80;30.00;;;;;;5088457;28;19973;-63
2022/02/08 02:44:23;;;;;;;;;;;21.80;30.00;;;;;;5090448;28;19924;-63
2022/02/08 02:46:51;;;;;;;;;;;21.80;30.00;;;;;;5087681;28;19947;-63
2022/02/08 02:49:18;;;;;;;;;;;21.80;30.00;;;;;;5090068;28;20108;-63
2022/02/08 02:51:45;;;;;;;;;;;21.80;30.00;;;;;;5087971;28;19987;-64
2022/02/08 02:54:14;;;;;;;;;;;21.80;30.00;;;;;;5090023;28;19928;-63
2022/02/08 02:56:41;;;;;;;;;;;21.80;30.00;;;;;;5087908;28;20339;-63
2022/02/08 02:59:08;;;;;;;;;;;21.80;30.00;;;;;;5089446;28;19970;-63
2022/02/08 03:01:53;;;;;;;;;;;21.80;30.00;;;;;;5070270;28;19928;-64
2022/02/08 03:04:31;;;;;;;;;;;21.80;30.00;;;;;;5089505;28;19924;-64
2022/02/08 03:18:33;;;;;;;;;;;21.80;30.00;;;;;;5087746;28;20513;-64
2022/02/08 03:20:53;;;;;;;;;;;21.80;30.00;;;;;;5088671;28;19924;-63
2022/02/08 03:26:41;;;;;;;;;;;21.70;30.00;;;;;;5087789;28;20333;-63
2022/02/08 03:29:08;;;;;;;;;;;21.80;30.00;;;;;;5088819;28;19924;-63
2022/02/08 03:31:35;;;;;;;;;;;21.80;30.00;;;;;;5087854;28;20009;-64
2022/02/08 03:34:03;;;;;;;;;;;21.80;30.00;;;;;;5088603;28;19968;-64
2022/02/08 03:36:30;;;;;;;;;;;21.80;30.00;;;;;;5087750;28;19924;-63
2022/02/08 03:42:14;;;;;;;;;;;21.80;30.00;;;;;;5087345;28;19927;-64
2022/02/08 03:44:45;;;;;;;;;;;21.70;30.00;;;;;;5089378;28;19928;-64
2022/02/08 03:47:12;;;;;;;;;;;21.80;30.00;;;;;;5087042;28;20101;-63
2022/02/08 03:49:40;;;;;;;;;;;21.80;30.00;;;;;;5089074;28;19924;-63
2022/02/08 03:52:07;;;;;;;;;;;21.80;30.00;;;;;;5086531;28;19928;-64
2022/02/08 03:54:35;;;;;;;;;;;21.80;30.00;;;;;;5089451;28;20375;-64
2022/02/08 03:57:05;;;;;;;;;;;21.80;30.50;;;;;;5068354;28;20431;-64
2022/02/08 03:59:32;;;;;;;;;;;21.80;30.00;;;;;;5088993;28;19924;-64
2022/02/08 04:02:27;;;;;;;;;;;21.80;30.00;;;;;;5086489;28;19970;-63
2022/02/08 04:04:52;;;;;;;;;;;21.80;30.00;;;;;;5088804;28;19928;-63
2022/02/08 04:07:33;;;;;;;;;;;21.80;30.00;;;;;;5086536;28;20262;-64
2022/02/08 04:10:04;;;;;;;;;;;21.80;30.00;;;;;;5088960;28;19970;-63
2022/02/08 04:12:51;;;;;;;;;;;21.80;30.00;;;;;;5068772;28;19927;-63
2022/02/08 04:15:46;;;;;;;;;;;21.80;30.00;;;;;;5088869;28;20323;-64
2022/02/08 04:18:34;;;;;;;;;;;21.80;30.00;;;;;;5086192;28;19993;-64
2022/02/08 04:33:05;;;;;;;;;;;21.80;30.10;;;;;;5071259;28;19993;-64
2022/02/08 04:35:43;;;;;;;;;;;21.80;30.20;;;;;;5087758;28;19932;-64
2022/02/08 04:38:32;;;;;;;;;;;21.80;30.20;;;;;;5081403;28;20385;-64
2022/02/08 04:41:03;;;;;;;;;;;21.80;30.20;;;;;;5087403;28;19959;-64
2022/02/08 04:49:04;;;;;;;;;;;21.80;30.30;;;;;;5069751;28;19970;-64
2022/02/08 04:51:40;;;;;;;;;;;21.80;30.30;;;;;;5086006;28;20130;-64
2022/02/08 04:54:28;;;;;;;;;;;21.80;30.40;;;;;;5087414;28;20047;-64
2022/02/08 05:37:22;;;;;;;;;;;21.80;30.40;;;;;;5088847;28;19946;-64
2022/02/08 05:42:49;;;;;;;;;;;21.80;30.40;;;;;;5086612;28;19924;-64
2022/02/08 05:47:56;;;;;;;;;;;21.70;30.40;;;;;;5089483;28;19970;-64
2022/02/08 05:50:37;;;;;;;;;;;21.80;30.50;;;;;;5091189;28;20077;-64
2022/02/08 05:53:26;;;;;;;;;;;21.80;30.40;;;;;;5088662;28;20044;-64
2022/02/08 05:55:51;;;;;;;;;;;21.80;30.40;;;;;;5074809;28;19933;-64
2022/02/08 05:58:18;;;;;;;;;;;21.80;30.50;;;;;;5071370;28;19960;-64
2022/02/08 06:00:45;;;;;;;;;;;21.80;30.50;;;;;;5090514;28;19925;-63
2022/02/08 06:03:12;;;;;;;;;;;21.80;30.40;;;;;;5085761;28;20167;-64
2022/02/08 06:05:39;;;;;;;;;;;21.80;30.40;;;;;;5090531;28;20343;-64
2022/02/08 06:08:06;;;;;;;;;;;21.80;30.30;;;;;;5087262;28;20427;-64
2022/02/08 06:10:39;;;;;;;;;;;21.70;30.20;;;;;;5090447;28;19977;-64
2022/02/08 06:13:05;;;;;;;;;;;21.70;30.10;;;;;;5087358;28;19947;-63
2022/02/08 06:15:34;;;;;;;;;;;21.70;30.00;;;;;;5091452;28;19935;-64
2022/02/08 06:24:51;;;;;;;;;;;21.70;30.20;;;;;;5092291;28;20351;-62
2022/02/08 06:27:18;;;;;;;;;;;21.70;30.00;;;;;;5089936;28;20302;-63
2022/02/08 06:29:45;;;;;;;;;;;21.80;30.00;;;;;;5072168;28;19924;-62
2022/02/08 06:32:12;;;;;;;;;;;21.90;30.00;;;;;;5090178;28;19924;-62
2022/02/08 06:34:39;;;;;;;;;;;21.90;30.00;;;;;;5092293;28;19924;-65
2022/02/08 06:37:11;;;;;;;;;;;22.00;30.00;;;;;;5092470;28;19924;-65
2022/02/08 06:39:38;;;;;;;;;;;22.00;30.00;;;;;;5099088;28;19924;-65
2022/02/08 06:42:08;;;;;;;;;;;22.10;30.10;;;;;;5082355;28;19959;-65
2022/02/08 06:44:35;;;;;;;;;;;22.20;30.10;;;;;;5083870;28;19924;-64
2022/02/08 06:47:03;;;;;;;;;;;22.20;30.00;;;;;;5082373;28;20347;-65
2022/02/08 06:49:30;;;;;;;;;;;22.30;29.90;;;;;;5073698;28;20320;-64
2022/02/08 06:51:58;;;;;;;;;;;22.40;29.80;;;;;;5076357;28;19936;-63
2022/02/08 06:54:25;;;;;;;;;;;22.40;29.80;;;;;;5053570;28;19925;-68
2022/02/08 06:56:52;;;;;;;;;;;22.50;30.10;;;;;;5084189;28;19976;-64
2022/02/08 06:59:20;;;;;;;;;;;22.60;30.10;;;;;;5087011;28;19977;-62
2022/02/08 07:01:47;;;;;;;;;;;22.70;30.00;;;;;;5091516;28;19924;-63
2022/02/08 07:04:17;;;;;;;;;;;22.70;29.90;;;;;;5087556;28;19932;-64
2022/02/08 07:06:44;;;;;;;;;;;22.80;29.80;;;;;;5080623;28;19924;-63
2022/02/08 07:09:13;;;;;;;;;;;22.90;29.90;;;;;;5079932;28;19924;-63
2022/02/08 07:11:45;;;;;;;;;;;22.90;30.00;;;;;;5093181;28;20327;-64
2022/02/08 07:14:12;;;;;;;;;;;23.00;30.20;;;;;;5081645;28;19928;-63
2022/02/08 07:16:39;;;;;;;;;;;23.00;30.30;;;;;;5082933;28;20316;-64
2022/02/08 07:19:06;;;;;;;;;;;23.10;30.20;;;;;;5080765;28;19936;-62
2022/02/08 07:21:34;;;;;;;;;;;23.20;30.10;;;;;;5082323;28;19928;-64
2022/02/08 07:24:02;;;;;;;;;;;23.20;30.20;;;;;;5075558;28;19932;-64
2022/02/08 07:26:30;;;;;;;;;;;23.30;30.40;;;;;;5082480;28;20336;-66
2022/02/08 07:28:57;;;;;;;;;;;23.40;30.30;;;;;;5080816;28;20339;-65
2022/02/08 07:31:34;;;;;;;;;;;23.40;30.20;;;;;;5076938;28;19925;-66
2022/02/08 07:34:13;;;;;;;;;;;23.50;30.10;;;;;;5076422;28;19932;-65
2022/02/08 07:36:51;;;;;;;;;;;23.60;30.00;;;;;;5079157;28;19924;-67
2022/02/08 07:39:35;;;;;;;;;;;23.60;30.00;;;;;;5081811;28;20959;-63
2022/02/08 07:42:02;;;;;;;;;;;23.70;30.10;;;;;;5084798;28;19924;-64
2022/02/08 07:44:29;;;;;;;;;;;23.70;30.30;;;;;;5081651;28;19939;-65
2022/02/08 07:46:57;;;;;;;;;;;23.70;30.50;;;;;;5081453;28;19928;-65
2022/02/08 07:49:24;;;;;;;;;;;23.70;30.60;;;;;;5097844;28;19924;-64
2022/02/08 07:51:51;;;;;;;;;;;23.80;30.60;;;;;;5109184;28;19928;-62
2022/02/08 07:54:18;;;;;;;;;;;23.80;30.60;;;;;;5110482;28;19927;-63
2022/02/08 07:56:49;;;;;;;;;;;23.80;30.40;;;;;;5108792;28;19927;-65
2022/02/08 07:59:16;;;;;;;;;;;23.90;30.40;;;;;;5097075;28;19977;-63
2022/02/08 08:01:43;;;;;;;;;;;23.90;30.30;;;;;;5078904;28;19928;-63
2022/02/08 08:04:10;;;;;;;;;;;23.90;30.10;;;;;;5085269;28;19928;-62
2022/02/08 08:06:37;;;;;;;;;;;23.80;29.90;;;;;;5082128;28;19925;-64
2022/02/08 08:09:04;;;;;;;;;;;23.90;29.90;;;;;;5074462;28;19924;-63
2022/02/08 08:11:39;;;;;;;;;;;23.80;30.00;;;;;;5081874;28;20208;-62
2022/02/08 08:14:07;;;;;;;;;;;23.80;30.00;;;;;;5085654;28;19979;-64
2022/02/08 08:19:24;;;;;;;;;;;23.90;30.00;;;;;;5082703;28;19928;-63
2022/02/08 08:21:52;;;;;;;;;;;23.90;29.90;;;;;;5079549;28;20381;-62
2022/02/08 08:24:19;;;;;;;;;;;23.90;29.90;;;;;;5082990;28;19954;-62
2022/02/08 08:26:46;;;;;;;;;;;23.90;29.90;;;;;;5084599;28;19928;-63
2022/02/08 08:29:13;;;;;;;;;;;24.00;30.00;;;;;;5073200;28;19961;-63
2022/02/08 08:31:40;;;;;;;;;;;24.00;30.00;;;;;;5075521;28;19932;-65
2022/02/08 08:34:08;;;;;;;;;;;24.10;30.10;;;;;;5084621;28;19928;-62
2022/02/08 08:36:36;;;;;;;;;;;24.10;29.90;;;;;;5084107;28;19928;-63
2022/02/08 08:39:45;;;;;;;;;;;24.10;29.80;;;;;;5081787;28;19924;-64
2022/02/08 08:42:39;;;;;;;;;;;24.10;29.80;;;;;;5079212;28;19929;-62
2022/02/08 08:50:53;;;;;;;;;;;24.30;29.80;;;;;;5084404;28;19967;-61
2022/02/08 08:53:22;;;;;;;;;;;24.30;29.70;;;;;;5082262;28;20380;-60
2022/02/08 08:55:49;;;;;;;;;;;24.30;29.60;;;;;;5085897;28;20406;-62
2022/02/08 08:58:16;;;;;;;;;;;24.30;29.60;;;;;;5065120;28;19928;-59
2022/02/08 09:00:44;;;;;;;;;;;24.30;29.60;;;;;;5083172;28;19932;-60
2022/02/08 09:03:11;;;;;;;;;;;24.40;29.60;;;;;;5078867;28;19970;-63
2022/02/08 09:05:38;;;;;;;;;;;24.30;29.30;;;;;;5088419;28;19973;-61
2022/02/08 09:08:07;;;;;;;;;;;24.30;29.00;;;;;;5082263;28;19925;-61
2022/02/08 09:10:46;;;;;;;;;;;24.30;28.90;;;;;;5086029;28;19997;-60
2022/02/08 09:13:29;;;;;;;;;;;24.20;28.90;;;;;;5081475;28;19981;-62
2022/02/08 09:16:09;;;;;;;;;;;24.20;28.80;;;;;;5088552;28;19924;-60
2022/02/08 09:22:03;;;;;;;;;;;24.10;28.70;;;;;;5070396;28;19935;-63
2022/02/08 09:27:33;;;;;;;;;;;24.10;28.60;;;;;;5088793;28;19974;-62
2022/02/08 09:29:49;;;;;;;;;;;24.10;28.80;;;;;;5085883;28;20294;-62
2022/02/08 09:32:53;;;;;;;;;;;24.10;28.80;;;;;;5083272;28;19924;-61
2022/02/08 09:35:04;;;;;;;;;;;24.10;28.90;;;;;;5072956;28;19924;-61
2022/02/08 09:37:32;;;;;;;;;;;24.10;28.90;;;;;;5089404;28;19989;-63
2022/02/08 09:40:00;;;;;;;;;;;24.10;28.90;;;;;;5088853;28;19924;-63
2022/02/08 09:42:27;;;;;;;;;;;24.20;28.80;;;;;;5066705;28;20421;-64
2022/02/08 09:44:55;;;;;;;;;;;24.20;28.70;;;;;;5088310;28;19978;-64
2022/02/08 09:47:37;;;;;;;;;;;24.20;28.60;;;;;;5088537;28;19924;-64
2022/02/08 09:50:17;;;;;;;;;;;24.20;28.50;;;;;;5088515;28;19974;-64
2022/02/08 09:52:48;;;;;;;;;;;24.20;28.40;;;;;;5084600;28;20415;-65
2022/02/08 09:55:15;;;;;;;;;;;24.20;28.80;;;;;;5087494;28;19928;-63
2022/02/08 09:57:42;;;;;;;;;;;24.20;28.30;;;;;;5091184;28;19957;-64
2022/02/08 10:00:10;;;;;;;;;;;24.20;28.20;;;;;;5093374;28;19983;-64
2022/02/08 10:02:37;;;;;;;;;;;24.30;28.20;;;;;;5091635;28;20270;-63
2022/02/08 10:05:05;;;;;;;;;;;24.30;28.10;;;;;;5090248;28;19924;-63
2022/02/08 10:07:35;;;;;;;;;;;24.30;27.90;;;;;;5091917;28;19961;-63
2022/02/08 10:10:04;;;;;;;;;;;24.20;27.70;;;;;;5091722;28;19932;-60
2022/02/08 10:12:57;;;;;;;;;;;24.20;27.60;;;;;;5092439;28;20421;-64
2022/02/08 10:21:42;;;;;;;;;;;24.30;28.10;;;;;;5086565;28;20037;-64
2022/02/08 10:24:04;;;;;;;;;;;24.30;28.20;;;;;;5081902;28;19971;-63
2022/02/08 10:29:45;;;;;;;;;;;24.30;28.20;;;;;;5066722;28;19973;-63
2022/02/08 10:37:34;;;;;;;;;;;24.40;28.20;;;;;;5077634;28;20372;-61
2022/02/08 10:38:07;;;;;;;;;;;24.40;28.20;;;;;;5080999;28;19939;-64
2022/02/08 10:40:38;;;;;;;;;;;24.40;28.10;;;;;;5083908;28;19924;-64
2022/02/08 10:43:07;;;;;;;;;;;24.40;28.00;;;;;;5081753;28;19932;-64
2022/02/08 10:45:36;;;;;;;;;;;24.40;28.00;;;;;;5083054;28;20100;-63
2022/02/08 10:48:05;;;;;;;;;;;24.40;27.90;;;;;;5068460;28;19940;-65
2022/02/08 10:50:33;;;;;;;;;;;24.40;27.80;;;;;;5086250;28;19932;-67
2022/02/08 10:53:02;;;;;;;;;;;24.40;27.70;;;;;;5089318;28;19928;-71
2022/02/08 10:55:39;;;;;;;;;;;24.40;27.60;;;;;;5084795;28;20282;-66
2022/02/08 10:58:25;;;;;;;;;;;24.30;27.50;;;;;;5082289;28;19985;-62
2022/02/08 11:01:03;;;;;;;;;;;24.30;27.40;;;;;;5082228;28;19932;-63
2022/02/08 11:03:42;;;;;;;;;;;24.30;27.40;;;;;;5087203;28;19932;-64
2022/02/08 11:06:18;;;;;;;;;;;24.30;27.30;;;;;;5089056;28;19939;-64
2022/02/08 11:09:10;;;;;;;;;;;24.30;27.30;;;;;;5070420;28;20452;-67
2022/02/08 11:11:50;;;;;;;;;;;24.30;27.20;;;;;;5082245;28;19924;-63
2022/02/08 11:14:46;;;;;;;;;;;24.30;27.10;;;;;;5085038;28;19936;-61
2022/02/08 11:17:38;;;;;;;;;;;24.30;27.10;;;;;;5082209;28;19938;-62
2022/02/08 11:20:20;;;;;;;;;;;24.30;27.10;;;;;;5071380;28;19990;-63
2022/02/08 11:23:10;;;;;;;;;;;24.30;27.10;;;;;;5085857;28;19932;-63
2022/02/08 11:25:40;;;;;;;;;;;24.30;27.10;;;;;;5070720;28;19949;-64
2022/02/08 11:32:47;;;;;;;;;;;24.30;26.80;;;;;;5091123;28;19965;-64
2022/02/08 11:42:40;;;;;;;;;;;24.30;26.60;;;;;;5090401;28;19928;-64
2022/02/08 11:46:55;;;;;;;;;;;24.30;26.40;;;;;;5089416;28;19932;-62
2022/02/08 11:49:34;;;;;;;;;;;24.30;23.80;;;;;;5085824;28;19928;-63
2022/02/08 11:55:23;;;;;;;;;;;23.60;23.90;;;;;;5075420;28;19997;-67
2022/02/08 12:00:43;;;;;;;;;;;23.50;25.40;;;;;;5087286;28;20100;-63
2022/02/08 12:03:39;;;;;;;;;;;23.50;25.80;;;;;;5087550;28;19924;-62
2022/02/08 12:06:26;;;;;;;;;;;23.50;26.00;;;;;;5088985;28;20309;-63
2022/02/08 12:08:58;;;;;;;;;;;23.60;26.20;;;;;;5094817;28;19923;-61
2022/02/08 12:11:53;;;;;;;;;;;23.70;26.20;;;;;;5106852;28;19924;-61
2022/02/08 12:29:24;;;;;;;;;;;24.10;26.80;;;;;;5087399;28;19924;-61
2022/02/08 12:31:42;;;;;;;;;;;24.20;26.90;;;;;;5089397;28;19931;-63
2022/02/08 12:34:20;;;;;;;;;;;24.30;26.90;;;;;;5071330;28;20281;-64
2022/02/08 12:52:02;;;;;;;;;;;24.60;26.90;;;;;;5086664;28;19928;-63
2022/02/08 12:54:16;;;;;;;;;;;24.60;26.90;;;;;;5082691;28;19924;-62
2022/02/08 12:56:59;;;;;;;;;;;24.70;27.00;;;;;;5074486;28;19993;-62
2022/02/08 12:59:47;;;;;;;;;;;24.70;26.90;;;;;;5086469;28;19924;-62
2022/02/08 13:02:26;;;;;;;;;;;24.70;26.80;;;;;;5082416;28;19931;-61
2022/02/08 14:03:37;;;;;;;;;;;24.70;27.30;;;;;;5071626;28;19956;-62
2022/02/08 14:06:14;;;;;;;;;;;24.70;27.30;;;;;;5083617;28;20001;-61
2022/02/08 14:08:57;;;;;;;;;;;24.70;27.40;;;;;;5083778;28;19948;-61
2022/02/08 14:14:32;;;;;;;;;;;24.70;27.30;;;;;;5085860;28;19928;-65
2022/02/08 14:20:03;;;;;;;;;;;24.80;27.30;;;;;;5097870;28;19931;-62
2022/02/08 14:22:51;;;;;;;;;;;24.80;27.30;;;;;;5076850;28;19954;-62
2022/02/08 14:25:29;;;;;;;;;;;24.80;27.30;;;;;;5078183;28;20411;-61
2022/02/08 14:30:53;;;;;;;;;;;24.80;27.30;;;;;;5068942;28;19928;-61
2022/02/08 14:33:36;;;;;;;;;;;24.90;27.20;;;;;;5083132;28;20535;-62
2022/02/08 14:36:24;;;;;;;;;;;24.90;27.10;;;;;;5084346;28;19942;-63
2022/02/08 15:07:54;;;;;;;;;;;24.90;26.90;;;;;;5084613;28;19981;-62
2022/02/08 15:16:36;;;;;;;;;;;24.90;26.70;;;;;;5087348;28;19974;-62
2022/02/08 15:19:03;;;;;;;;;;;24.90;26.80;;;;;;5086400;28;19927;-62
2022/02/08 15:21:33;;;;;;;;;;;24.80;26.70;;;;;;5088674;28;19931;-62
2022/02/08 15:24:02;;;;;;;;;;;24.80;26.80;;;;;;5091429;28;19928;-63
2022/02/08 15:26:29;;;;;;;;;;;24.80;26.80;;;;;;5089672;28;19994;-62
2022/02/08 15:29:02;;;;;;;;;;;24.80;26.80;;;;;;5083730;28;20004;-62
2022/02/08 15:31:29;;;;;;;;;;;24.80;26.80;;;;;;5090461;28;19978;-61
2022/02/08 15:33:58;;;;;;;;;;;24.80;27.30;;;;;;5098120;28;19923;-62
2022/02/08 15:36:26;;;;;;;;;;;24.70;26.90;;;;;;5098226;28;20299;-63
2022/02/08 15:38:57;;;;;;;;;;;24.70;26.90;;;;;;5097443;28;19996;-61
2022/02/08 15:41:24;;;;;;;;;;;24.70;26.80;;;;;;5111750;28;19943;-60
2022/02/08 15:43:51;;;;;;;;;;;24.70;26.70;;;;;;5092069;28;19924;-61
2022/02/08 15:46:23;;;;;;;;;;;24.70;26.70;;;;;;5080156;28;20010;-62
2022/02/08 15:48:52;;;;;;;;;;;24.60;26.60;;;;;;5106089;28;20380;-61
2022/02/08 15:51:31;;;;;;;;;;;24.60;26.60;;;;;;5111610;28;19957;-62
2022/02/08 15:54:12;;;;;;;;;;;24.60;26.60;;;;;;5111670;28;20458;-62
2022/02/08 15:57:19;;;;;;;;;;;24.50;26.50;;;;;;5110176;28;20373;-62
2022/02/08 16:08:23;;;;;;;;;;;24.30;26.30;;;;;;5068193;28;19963;-62
2022/02/08 16:11:04;;;;;;;;;;;24.30;26.30;;;;;;5070860;28;19970;-62
2022/02/08 16:13:47;;;;;;;;;;;24.30;26.40;;;;;;5070505;28;19974;-63
2022/02/08 16:16:33;;;;;;;;;;;24.20;26.40;;;;;;5069850;28;19970;-61
2022/02/08 16:19:11;;;;;;;;;;;24.20;26.40;;;;;;5078462;28;19924;-61
2022/02/08 16:22:22;;;;;;;;;;;24.10;26.50;;;;;;5089659;28;19924;-61
2022/02/08 16:33:58;;;;;;;;;;;23.90;26.80;;;;;;5106623;28;19949;-64
2022/02/08 16:46:10;;;;;;;;;;;23.90;27.30;;;;;;5107938;28;19972;-63
2022/02/08 16:48:40;;;;;;;;;;;23.80;27.20;;;;;;5106727;28;19924;-63
2022/02/08 17:01:46;;;;;;;;;;;23.70;27.50;;;;;;5107889;28;20195;-63
2022/02/08 17:04:13;;;;;;;;;;;23.60;27.40;;;;;;5108125;28;19924;-63
2022/02/08 17:06:40;;;;;;;;;;;23.60;27.40;;;;;;5108927;28;19924;-63
2022/02/08 17:09:12;;;;;;;;;;;23.60;27.40;;;;;;5112089;28;19977;-63
2022/02/08 17:11:45;;;;;;;;;;;23.60;27.50;;;;;;5112256;28;20167;-63
2022/02/08 17:14:27;;;;;;;;;;;23.60;27.50;;;;;;5112450;28;19981;-63
2022/02/08 17:17:30;;;;;;;;;;;23.60;27.50;;;;;;5111013;28;20388;-64
2022/02/08 17:45:52;;;;;;;;;;;23.40;27.90;;;;;;5113049;28;19924;-63
2022/02/08 17:51:39;;;;;;;;;;;23.40;28.00;;;;;;5111020;28;19923;-63
2022/02/08 17:54:12;;;;;;;;;;;23.40;28.10;;;;;;5111859;28;19927;-63
2022/02/08 17:56:39;;;;;;;;;;;23.40;28.10;;;;;;5111550;28;19924;-63
2022/02/08 17:59:08;;;;;;;;;;;23.30;28.20;;;;;;5111204;28;20104;-63
2022/02/08 18:01:35;;;;;;;;;;;23.30;28.20;;;;;;5111389;28;19923;-63
2022/02/08 18:04:03;;;;;;;;;;;23.30;28.30;;;;;;5109788;28;20145;-63
2022/02/08 18:06:30;;;;;;;;;;;23.30;28.30;;;;;;5111293;28;20216;-63
2022/02/08 18:08:57;;;;;;;;;;;23.30;28.30;;;;;;5110679;28;19931;-63
2022/02/08 18:11:29;;;;;;;;;;;23.30;28.40;;;;;;5111982;28;20118;-63
2022/02/08 18:17:24;;;;;;;;;;;23.30;28.50;;;;;;5109864;28;19919;-63
2022/02/08 18:20:01;;;;;;;;;;;23.20;28.50;;;;;;5112460;28;19947;-62
2022/02/08 18:22:51;;;;;;;;;;;23.20;28.50;;;;;;5109381;28;20109;-63
2022/02/08 18:25:45;;;;;;;;;;;23.20;28.50;;;;;;5112690;28;19924;-63
2022/02/08 18:53:23;;;;;;;;;;;23.20;29.00;;;;;;5091327;28;20053;-63
2022/02/08 18:57:17;;;;;;;;;;;23.10;29.00;;;;;;5089110;28;19923;-63
2022/02/08 19:11:48;;;;;;;;;;;23.00;29.00;;;;;;5090015;28;19919;-63
2022/02/08 19:17:34;;;;;;;;;;;23.00;29.00;;;;;;5088835;28;19928;-63
2022/02/08 19:20:01;;;;;;;;;;;23.00;29.10;;;;;;5090330;28;19935;-63
2022/02/08 19:22:28;;;;;;;;;;;23.00;29.10;;;;;;5071391;28;20272;-63
2022/02/08 19:24:57;;;;;;;;;;;23.00;29.10;;;;;;5090654;28;20321;-63
2022/02/08 19:27:24;;;;;;;;;;;22.90;29.00;;;;;;5087861;28;19924;-63
2022/02/08 19:29:51;;;;;;;;;;;22.90;29.10;;;;;;5089927;28;19961;-63
2022/02/08 19:32:19;;;;;;;;;;;22.90;29.10;;;;;;5087581;28;20348;-63
2022/02/08 19:38:05;;;;;;;;;;;22.90;29.10;;;;;;5087512;28;20300;-63
2022/02/08 19:40:32;;;;;;;;;;;22.90;29.10;;;;;;5090290;28;20433;-63
2022/02/08 19:42:59;;;;;;;;;;;22.90;29.10;;;;;;5087242;28;20000;-63
2022/02/08 19:45:27;;;;;;;;;;;22.90;29.10;;;;;;5090913;28;19928;-63
2022/02/08 19:47:54;;;;;;;;;;;22.90;29.10;;;;;;5087004;28;20033;-63
2022/02/08 19:50:21;;;;;;;;;;;22.90;29.10;;;;;;5090518;28;19928;-63
2022/02/08 19:52:50;;;;;;;;;;;22.90;29.10;;;;;;5087184;28;19924;-63
2022/02/08 19:55:25;;;;;;;;;;;22.90;29.10;;;;;;5090491;28;20327;-62
2022/02/08 19:57:55;;;;;;;;;;;22.90;29.10;;;;;;5087243;28;19985;-63
2022/02/08 20:00:28;;;;;;;;;;;22.90;29.10;;;;;;5090494;28;20426;-62
2022/02/08 20:03:00;;;;;;;;;;;22.90;29.20;;;;;;5086453;28;20384;-63
2022/02/08 20:05:30;;;;;;;;;;;22.90;29.20;;;;;;5090219;28;19985;-62
2022/02/08 20:07:58;;;;;;;;;;;22.80;29.20;;;;;;5086480;28;20443;-62
2022/02/08 20:10:26;;;;;;;;;;;22.80;29.20;;;;;;5090250;28;19978;-62
2022/02/08 20:12:55;;;;;;;;;;;22.80;29.20;;;;;;5086879;28;19989;-62
2022/02/08 20:15:23;;;;;;;;;;;22.80;29.20;;;;;;5089631;28;19928;-62
2022/02/08 20:17:52;;;;;;;;;;;22.80;29.20;;;;;;5086493;28;19924;-62
2022/02/08 20:20:22;;;;;;;;;;;22.80;29.20;;;;;;5090507;28;19924;-62
2022/02/08 20:22:56;;;;;;;;;;;22.80;29.30;;;;;;5086826;28;19985;-63
2022/02/08 20:25:24;;;;;;;;;;;22.80;29.30;;;;;;5090082;28;19954;-62
2022/02/08 20:27:54;;;;;;;;;;;22.80;29.30;;;;;;5086659;28;20117;-62
2022/02/08 20:30:29;;;;;;;;;;;22.80;29.30;;;;;;5089903;28;19928;-62
2022/02/08 20:33:00;;;;;;;;;;;22.70;29.20;;;;;;5086088;28;19959;-62
2022/02/08 20:35:28;;;;;;;;;;;22.80;29.30;;;;;;5089971;28;19924;-62
2022/02/08 20:37:55;;;;;;;;;;;22.70;29.30;;;;;;5086271;28;19928;-62
2022/02/08 20:40:22;;;;;;;;;;;22.70;29.30;;;;;;5089760;28;20089;-62
2022/02/08 20:42:54;;;;;;;;;;;22.70;29.30;;;;;;5085518;28;19924;-62
2022/02/08 20:45:21;;;;;;;;;;;22.70;29.30;;;;;;5090135;28;19924;-62
2022/02/08 20:47:48;;;;;;;;;;;22.70;29.30;;;;;;5086527;28;19974;-62
2022/02/08 20:50:18;;;;;;;;;;;22.70;29.30;;;;;;5089589;28;20381;-62
2022/02/08 20:52:55;;;;;;;;;;;22.70;29.30;;;;;;5086039;28;20006;-63
2022/02/08 20:55:24;;;;;;;;;;;22.70;29.30;;;;;;5073061;28;19981;-62
2022/02/08 20:58:01;;;;;;;;;;;22.70;29.30;;;;;;5085689;28;19978;-62
2022/02/08 21:00:29;;;;;;;;;;;22.70;29.30;;;;;;5089624;28;20326;-62
2022/02/08 21:03:01;;;;;;;;;;;22.70;29.30;;;;;;5067858;28;19967;-62
2022/02/08 21:05:33;;;;;;;;;;;22.70;29.30;;;;;;5089409;28;19978;-62
2022/02/08 21:08:00;;;;;;;;;;;22.70;29.30;;;;;;5085950;28;20332;-62
2022/02/08 21:10:29;;;;;;;;;;;22.70;29.40;;;;;;5089710;28;19924;-62
2022/02/08 21:13:15;;;;;;;;;;;22.70;29.40;;;;;;5085853;28;20327;-62
2022/02/08 21:15:42;;;;;;;;;;;22.70;29.40;;;;;;5088917;28;20239;-63
2022/02/08 21:18:10;;;;;;;;;;;22.70;29.40;;;;;;5086774;28;19985;-62
2022/02/08 21:20:37;;;;;;;;;;;22.70;29.40;;;;;;5089222;28;19947;-62